sensor_id;sensor_type;location;lat;lon;timestamp;temperature;humidity
39371;DHT22;25099;51.946;4.838;2024-03-07T00:02:19;7.90;99.90
39371;DHT22;25099;51.946;4.838;2024-03-07T00:04:46;7.90;99.90
39371;DHT22;25099;51.946;4.838;2024-03-07T00:07:11;7.90;99.90
39371;DHT22;25099;51.946;4.838;2024-03-07T00:09:37;7.80;99.90
39371;DHT22;25099;51.946;4.838;2024-03-07T00:12:04;7.90;99.90
39371;DHT22;25099;51.946;4.838;2024-03-07T00:14:31;7.80;99.90
39371;DHT22;25099;51.946;4.838;2024-03-07T00:16:57;7.80;99.90
39371;DHT22;25099;51.946;4.838;2024-03-07T00:19:24;7.80;99.90
39371;DHT22;25099;51.946;4.838;2024-03-07T00:21:57;7.80;99.90
39371;DHT22;25099;51.946;4.838;2024-03-07T00:24:23;7.80;99.90
39371;DHT22;25099;51.946;4.838;2024-03-07T00:26:49;7.70;99.90
39371;DHT22;25099;51.946;4.838;2024-03-07T00:29:18;7.70;99.90
39371;DHT22;25099;51.946;4.838;2024-03-07T00:31:45;7.70;99.90
39371;DHT22;25099;51.946;4.838;2024-03-07T00:34:15;7.70;99.90
39371;DHT22;25099;51.946;4.838;2024-03-07T00:36:45;7.70;99.90
39371;DHT22;25099;51.946;4.838;2024-03-07T00:39:11;7.70;99.90
39371;DHT22;25099;51.946;4.838;2024-03-07T00:41:40;7.70;99.90
39371;DHT22;25099;51.946;4.838;2024-03-07T00:44:07;7.60;99.90
39371;DHT22;25099;51.946;4.838;2024-03-07T00:46:35;7.60;99.90
39371;DHT22;25099;51.946;4.838;2024-03-07T00:49:01;7.60;99.90
39371;DHT22;25099;51.946;4.838;2024-03-07T00:51:27;7.60;99.90
39371;DHT22;25099;51.946;4.838;2024-03-07T00:53:52;7.60;99.90
39371;DHT22;25099;51.946;4.838;2024-03-07T00:56:18;7.60;99.90
39371;DHT22;25099;51.946;4.838;2024-03-07T00:58:44;7.60;99.90
39371;DHT22;25099;51.946;4.838;2024-03-07T01:01:09;7.60;99.90
39371;DHT22;25099;51.946;4.838;2024-03-07T01:03:36;7.60;99.90
39371;DHT22;25099;51.946;4.838;2024-03-07T01:06:03;7.60;99.90
39371;DHT22;25099;51.946;4.838;2024-03-07T01:08:28;7.60;99.90
39371;DHT22;25099;51.946;4.838;2024-03-07T01:10:58;7.60;99.90
39371;DHT22;25099;51.946;4.838;2024-03-07T01:13:23;7.50;99.90
39371;DHT22;25099;51.946;4.838;2024-03-07T01:15:49;7.50;99.90
39371;DHT22;25099;51.946;4.838;2024-03-07T01:18:15;7.50;99.90
39371;DHT22;25099;51.946;4.838;2024-03-07T01:20:42;7.50;99.90
39371;DHT22;25099;51.946;4.838;2024-03-07T01:23:07;7.40;99.90
39371;DHT22;25099;51.946;4.838;2024-03-07T01:25:34;7.40;99.90
39371;DHT22;25099;51.946;4.838;2024-03-07T01:28:00;7.40;99.90
39371;DHT22;25099;51.946;4.838;2024-03-07T01:30:26;7.40;99.90
39371;DHT22;25099;51.946;4.838;2024-03-07T01:32:54;7.40;99.90
39371;DHT22;25099;51.946;4.838;2024-03-07T01:35:19;7.40;99.90
39371;DHT22;25099;51.946;4.838;2024-03-07T01:37:45;7.30;99.90
39371;DHT22;25099;51.946;4.838;2024-03-07T01:40:11;7.30;99.90
39371;DHT22;25099;51.946;4.838;2024-03-07T01:42:36;7.30;99.90
39371;DHT22;25099;51.946;4.838;2024-03-07T01:45:02;7.30;99.90
39371;DHT22;25099;51.946;4.838;2024-03-07T01:47:28;7.30;99.90
39371;DHT22;25099;51.946;4.838;2024-03-07T01:49:54;7.30;99.90
39371;DHT22;25099;51.946;4.838;2024-03-07T01:52:20;7.20;99.90
39371;DHT22;25099;51.946;4.838;2024-03-07T01:54:48;7.20;99.90
39371;DHT22;25099;51.946;4.838;2024-03-07T01:57:16;7.20;99.90
39371;DHT22;25099;51.946;4.838;2024-03-07T01:59:42;7.20;99.90
39371;DHT22;25099;51.946;4.838;2024-03-07T02:02:08;7.20;99.90
39371;DHT22;25099;51.946;4.838;2024-03-07T02:04:34;7.10;99.90
39371;DHT22;25099;51.946;4.838;2024-03-07T02:06:59;7.10;99.90
39371;DHT22;25099;51.946;4.838;2024-03-07T02:09:25;7.10;99.90
39371;DHT22;25099;51.946;4.838;2024-03-07T02:11:50;7.20;99.90
39371;DHT22;25099;51.946;4.838;2024-03-07T02:14:16;7.20;99.90
39371;DHT22;25099;51.946;4.838;2024-03-07T02:16:42;7.20;99.90
39371;DHT22;25099;51.946;4.838;2024-03-07T02:19:08;7.10;99.90
39371;DHT22;25099;51.946;4.838;2024-03-07T02:21:35;7.10;99.90
39371;DHT22;25099;51.946;4.838;2024-03-07T02:24:01;7.10;99.90
39371;DHT22;25099;51.946;4.838;2024-03-07T02:26:26;7.10;99.90
39371;DHT22;25099;51.946;4.838;2024-03-07T02:28:52;7.10;99.90
39371;DHT22;25099;51.946;4.838;2024-03-07T02:31:18;7.10;99.90
39371;DHT22;25099;51.946;4.838;2024-03-07T02:33:44;7.10;99.90
39371;DHT22;25099;51.946;4.838;2024-03-07T02:36:09;7.10;99.90
39371;DHT22;25099;51.946;4.838;2024-03-07T02:38:35;7.10;99.90
39371;DHT22;25099;51.946;4.838;2024-03-07T02:41:01;7.00;99.90
39371;DHT22;25099;51.946;4.838;2024-03-07T02:43:26;7.00;99.90
39371;DHT22;25099;51.946;4.838;2024-03-07T02:45:52;7.00;99.90
39371;DHT22;25099;51.946;4.838;2024-03-07T02:48:17;6.90;99.90
39371;DHT22;25099;51.946;4.838;2024-03-07T02:50:43;6.90;99.90
39371;DHT22;25099;51.946;4.838;2024-03-07T02:53:09;6.80;99.90
39371;DHT22;25099;51.946;4.838;2024-03-07T02:55:35;6.80;99.90
39371;DHT22;25099;51.946;4.838;2024-03-07T02:58:00;6.80;99.90
39371;DHT22;25099;51.946;4.838;2024-03-07T03:00:26;6.70;99.90
39371;DHT22;25099;51.946;4.838;2024-03-07T03:02:52;6.70;99.90
39371;DHT22;25099;51.946;4.838;2024-03-07T03:05:18;6.70;99.90
39371;DHT22;25099;51.946;4.838;2024-03-07T03:07:44;6.70;99.90
39371;DHT22;25099;51.946;4.838;2024-03-07T03:10:17;6.70;99.90
39371;DHT22;25099;51.946;4.838;2024-03-07T03:12:42;6.60;99.90
39371;DHT22;25099;51.946;4.838;2024-03-07T03:15:09;6.60;99.90
39371;DHT22;25099;51.946;4.838;2024-03-07T03:17:37;6.60;99.90
39371;DHT22;25099;51.946;4.838;2024-03-07T03:20:02;6.60;99.90
39371;DHT22;25099;51.946;4.838;2024-03-07T03:22:35;6.60;99.90
39371;DHT22;25099;51.946;4.838;2024-03-07T03:25:00;6.50;99.90
39371;DHT22;25099;51.946;4.838;2024-03-07T03:27:26;6.60;99.90
39371;DHT22;25099;51.946;4.838;2024-03-07T03:29:52;6.50;99.90
39371;DHT22;25099;51.946;4.838;2024-03-07T03:32:17;6.50;99.90
39371;DHT22;25099;51.946;4.838;2024-03-07T03:34:43;6.50;99.90
39371;DHT22;25099;51.946;4.838;2024-03-07T03:37:08;6.40;99.90
39371;DHT22;25099;51.946;4.838;2024-03-07T03:39:34;6.40;99.90
39371;DHT22;25099;51.946;4.838;2024-03-07T03:42:00;6.40;99.90
39371;DHT22;25099;51.946;4.838;2024-03-07T03:44:25;6.40;99.90
39371;DHT22;25099;51.946;4.838;2024-03-07T03:46:51;6.30;99.90
39371;DHT22;25099;51.946;4.838;2024-03-07T03:49:17;6.40;99.90
39371;DHT22;25099;51.946;4.838;2024-03-07T03:51:42;6.40;99.90
39371;DHT22;25099;51.946;4.838;2024-03-07T03:54:08;6.40;99.90
39371;DHT22;25099;51.946;4.838;2024-03-07T03:56:33;6.40;99.90
39371;DHT22;25099;51.946;4.838;2024-03-07T03:58:59;6.50;99.90
39371;DHT22;25099;51.946;4.838;2024-03-07T04:01:24;6.50;99.90
39371;DHT22;25099;51.946;4.838;2024-03-07T04:03:50;6.60;99.90
39371;DHT22;25099;51.946;4.838;2024-03-07T04:06:16;6.60;99.90
39371;DHT22;25099;51.946;4.838;2024-03-07T04:08:41;6.70;99.90
39371;DHT22;25099;51.946;4.838;2024-03-07T04:11:07;6.70;99.90
39371;DHT22;25099;51.946;4.838;2024-03-07T04:13:35;6.70;99.90
39371;DHT22;25099;51.946;4.838;2024-03-07T04:16:00;6.80;99.90
39371;DHT22;25099;51.946;4.838;2024-03-07T04:18:26;6.80;99.90
39371;DHT22;25099;51.946;4.838;2024-03-07T04:20:52;6.80;99.90
39371;DHT22;25099;51.946;4.838;2024-03-07T04:23:17;6.80;99.90
39371;DHT22;25099;51.946;4.838;2024-03-07T04:25:44;6.80;99.90
39371;DHT22;25099;51.946;4.838;2024-03-07T04:28:09;6.80;99.90
39371;DHT22;25099;51.946;4.838;2024-03-07T04:30:35;6.90;99.90
39371;DHT22;25099;51.946;4.838;2024-03-07T04:33:01;6.90;99.90
39371;DHT22;25099;51.946;4.838;2024-03-07T04:35:26;6.90;99.90
39371;DHT22;25099;51.946;4.838;2024-03-07T04:37:52;6.90;99.90
39371;DHT22;25099;51.946;4.838;2024-03-07T04:40:18;6.90;99.90
39371;DHT22;25099;51.946;4.838;2024-03-07T04:42:45;6.90;99.90
39371;DHT22;25099;51.946;4.838;2024-03-07T04:45:12;6.90;99.90
39371;DHT22;25099;51.946;4.838;2024-03-07T04:47:42;6.90;99.90
39371;DHT22;25099;51.946;4.838;2024-03-07T04:50:08;6.90;99.90
39371;DHT22;25099;51.946;4.838;2024-03-07T04:52:37;6.90;99.90
39371;DHT22;25099;51.946;4.838;2024-03-07T04:55:05;6.80;99.90
39371;DHT22;25099;51.946;4.838;2024-03-07T04:57:30;6.70;99.90
39371;DHT22;25099;51.946;4.838;2024-03-07T04:59:56;6.70;99.90
39371;DHT22;25099;51.946;4.838;2024-03-07T05:02:22;6.60;99.90
39371;DHT22;25099;51.946;4.838;2024-03-07T05:04:48;6.60;99.90
39371;DHT22;25099;51.946;4.838;2024-03-07T05:07:16;6.60;99.90
39371;DHT22;25099;51.946;4.838;2024-03-07T05:09:41;6.50;99.90
39371;DHT22;25099;51.946;4.838;2024-03-07T05:12:07;6.50;99.90
39371;DHT22;25099;51.946;4.838;2024-03-07T05:14:33;6.50;99.90
39371;DHT22;25099;51.946;4.838;2024-03-07T05:16:58;6.50;99.90
39371;DHT22;25099;51.946;4.838;2024-03-07T05:19:31;6.50;99.90
39371;DHT22;25099;51.946;4.838;2024-03-07T05:21:57;6.40;99.90
39371;DHT22;25099;51.946;4.838;2024-03-07T05:24:23;6.40;99.90
39371;DHT22;25099;51.946;4.838;2024-03-07T05:26:49;6.40;99.90
39371;DHT22;25099;51.946;4.838;2024-03-07T05:29:14;6.40;99.90
39371;DHT22;25099;51.946;4.838;2024-03-07T05:31:40;6.40;99.90
39371;DHT22;25099;51.946;4.838;2024-03-07T05:34:15;6.30;99.90
39371;DHT22;25099;51.946;4.838;2024-03-07T05:36:45;6.30;99.90
39371;DHT22;25099;51.946;4.838;2024-03-07T05:39:15;6.30;99.90
39371;DHT22;25099;51.946;4.838;2024-03-07T05:41:42;6.20;99.90
39371;DHT22;25099;51.946;4.838;2024-03-07T05:44:08;6.30;99.90
39371;DHT22;25099;51.946;4.838;2024-03-07T05:46:38;6.30;99.90
39371;DHT22;25099;51.946;4.838;2024-03-07T05:49:09;6.30;99.90
39371;DHT22;25099;51.946;4.838;2024-03-07T05:51:35;6.30;99.90
39371;DHT22;25099;51.946;4.838;2024-03-07T05:54:01;6.30;99.90
39371;DHT22;25099;51.946;4.838;2024-03-07T05:56:32;6.30;99.90
39371;DHT22;25099;51.946;4.838;2024-03-07T05:59:04;6.30;99.90
39371;DHT22;25099;51.946;4.838;2024-03-07T06:01:31;6.20;99.90
39371;DHT22;25099;51.946;4.838;2024-03-07T06:03:58;6.20;99.90
39371;DHT22;25099;51.946;4.838;2024-03-07T06:06:24;6.20;99.90
39371;DHT22;25099;51.946;4.838;2024-03-07T06:08:50;6.10;99.90
39371;DHT22;25099;51.946;4.838;2024-03-07T06:11:16;6.10;99.90
39371;DHT22;25099;51.946;4.838;2024-03-07T06:13:49;6.10;99.90
39371;DHT22;25099;51.946;4.838;2024-03-07T06:16:15;6.10;99.90
39371;DHT22;25099;51.946;4.838;2024-03-07T06:18:41;6.10;99.90
39371;DHT22;25099;51.946;4.838;2024-03-07T06:21:07;6.10;99.90
39371;DHT22;25099;51.946;4.838;2024-03-07T06:23:33;6.10;99.90
39371;DHT22;25099;51.946;4.838;2024-03-07T06:25:59;6.10;99.90
39371;DHT22;25099;51.946;4.838;2024-03-07T06:28:26;6.00;99.90
39371;DHT22;25099;51.946;4.838;2024-03-07T06:30:54;6.00;99.90
39371;DHT22;25099;51.946;4.838;2024-03-07T06:33:20;5.90;99.90
39371;DHT22;25099;51.946;4.838;2024-03-07T06:35:46;5.90;99.90
39371;DHT22;25099;51.946;4.838;2024-03-07T06:38:12;5.90;99.90
39371;DHT22;25099;51.946;4.838;2024-03-07T06:40:39;5.90;99.90
39371;DHT22;25099;51.946;4.838;2024-03-07T06:43:06;5.90;99.90
39371;DHT22;25099;51.946;4.838;2024-03-07T06:45:32;5.80;99.90
39371;DHT22;25099;51.946;4.838;2024-03-07T06:47:58;5.90;99.90
39371;DHT22;25099;51.946;4.838;2024-03-07T06:50:24;5.90;99.90
39371;DHT22;25099;51.946;4.838;2024-03-07T06:52:49;5.90;99.90
39371;DHT22;25099;51.946;4.838;2024-03-07T06:55:18;5.90;99.90
39371;DHT22;25099;51.946;4.838;2024-03-07T06:57:45;5.90;99.90
39371;DHT22;25099;51.946;4.838;2024-03-07T07:00:11;5.80;99.90
39371;DHT22;25099;51.946;4.838;2024-03-07T07:02:38;5.80;99.90
39371;DHT22;25099;51.946;4.838;2024-03-07T07:05:08;5.80;99.90
39371;DHT22;25099;51.946;4.838;2024-03-07T07:07:43;5.80;99.90
39371;DHT22;25099;51.946;4.838;2024-03-07T07:10:09;5.80;99.90
39371;DHT22;25099;51.946;4.838;2024-03-07T07:12:42;5.90;99.90
39371;DHT22;25099;51.946;4.838;2024-03-07T07:15:08;5.90;99.90
39371;DHT22;25099;51.946;4.838;2024-03-07T07:17:33;5.90;99.90
39371;DHT22;25099;51.946;4.838;2024-03-07T07:19:59;5.80;99.90
39371;DHT22;25099;51.946;4.838;2024-03-07T07:22:25;5.90;99.90
39371;DHT22;25099;51.946;4.838;2024-03-07T07:24:51;5.90;99.90
39371;DHT22;25099;51.946;4.838;2024-03-07T07:27:16;5.90;99.90
39371;DHT22;25099;51.946;4.838;2024-03-07T07:29:44;5.90;99.90
39371;DHT22;25099;51.946;4.838;2024-03-07T07:32:09;5.90;99.90
39371;DHT22;25099;51.946;4.838;2024-03-07T07:34:37;6.00;99.90
39371;DHT22;25099;51.946;4.838;2024-03-07T07:37:04;6.00;99.90
39371;DHT22;25099;51.946;4.838;2024-03-07T07:39:30;6.00;99.90
39371;DHT22;25099;51.946;4.838;2024-03-07T07:41:57;6.00;99.90
39371;DHT22;25099;51.946;4.838;2024-03-07T07:44:22;6.10;99.90
39371;DHT22;25099;51.946;4.838;2024-03-07T07:46:48;6.10;99.90
39371;DHT22;25099;51.946;4.838;2024-03-07T07:49:14;6.10;99.90
39371;DHT22;25099;51.946;4.838;2024-03-07T07:51:41;6.20;99.90
39371;DHT22;25099;51.946;4.838;2024-03-07T07:54:07;6.40;99.90
39371;DHT22;25099;51.946;4.838;2024-03-07T07:56:34;6.40;99.90
39371;DHT22;25099;51.946;4.838;2024-03-07T07:59:01;6.40;99.90
39371;DHT22;25099;51.946;4.838;2024-03-07T08:01:33;6.40;99.90
39371;DHT22;25099;51.946;4.838;2024-03-07T08:03:59;6.50;99.90
39371;DHT22;25099;51.946;4.838;2024-03-07T08:06:24;7.10;99.90
39371;DHT22;25099;51.946;4.838;2024-03-07T08:08:50;6.60;99.90
39371;DHT22;25099;51.946;4.838;2024-03-07T08:11:17;6.60;99.90
39371;DHT22;25099;51.946;4.838;2024-03-07T08:13:42;6.60;99.90
39371;DHT22;25099;51.946;4.838;2024-03-07T08:16:10;6.60;99.90
39371;DHT22;25099;51.946;4.838;2024-03-07T08:18:36;6.70;99.90
39371;DHT22;25099;51.946;4.838;2024-03-07T08:21:02;6.70;99.90
39371;DHT22;25099;51.946;4.838;2024-03-07T08:23:29;6.80;99.90
39371;DHT22;25099;51.946;4.838;2024-03-07T08:25:56;6.70;99.90
39371;DHT22;25099;51.946;4.838;2024-03-07T08:28:23;6.70;99.90
39371;DHT22;25099;51.946;4.838;2024-03-07T08:30:48;6.70;99.90
39371;DHT22;25099;51.946;4.838;2024-03-07T08:33:14;6.80;99.90
39371;DHT22;25099;51.946;4.838;2024-03-07T08:35:40;6.80;99.90
39371;DHT22;25099;51.946;4.838;2024-03-07T08:38:05;6.80;99.90
39371;DHT22;25099;51.946;4.838;2024-03-07T08:40:33;6.70;99.90
39371;DHT22;25099;51.946;4.838;2024-03-07T08:43:00;6.80;99.90
39371;DHT22;25099;51.946;4.838;2024-03-07T08:45:26;6.80;99.90
39371;DHT22;25099;51.946;4.838;2024-03-07T08:47:54;6.90;99.90
39371;DHT22;25099;51.946;4.838;2024-03-07T08:50:20;7.00;99.90
39371;DHT22;25099;51.946;4.838;2024-03-07T08:52:47;7.00;99.90
39371;DHT22;25099;51.946;4.838;2024-03-07T08:55:17;7.10;99.90
39371;DHT22;25099;51.946;4.838;2024-03-07T08:57:44;7.20;99.90
39371;DHT22;25099;51.946;4.838;2024-03-07T09:00:12;7.20;99.90
39371;DHT22;25099;51.946;4.838;2024-03-07T09:02:48;7.20;99.90
39371;DHT22;25099;51.946;4.838;2024-03-07T09:05:16;7.20;99.90
39371;DHT22;25099;51.946;4.838;2024-03-07T09:07:43;7.30;99.90
39371;DHT22;25099;51.946;4.838;2024-03-07T09:10:10;7.40;99.90
39371;DHT22;25099;51.946;4.838;2024-03-07T09:12:36;7.40;99.90
39371;DHT22;25099;51.946;4.838;2024-03-07T09:15:03;7.40;99.90
39371;DHT22;25099;51.946;4.838;2024-03-07T09:17:29;7.40;99.90
39371;DHT22;25099;51.946;4.838;2024-03-07T09:19:55;7.40;99.90
39371;DHT22;25099;51.946;4.838;2024-03-07T09:22:21;7.40;99.90
39371;DHT22;25099;51.946;4.838;2024-03-07T09:24:46;7.40;99.90
39371;DHT22;25099;51.946;4.838;2024-03-07T09:27:12;7.50;99.90
39371;DHT22;25099;51.946;4.838;2024-03-07T09:29:40;7.50;99.90
39371;DHT22;25099;51.946;4.838;2024-03-07T09:32:06;7.50;99.90
39371;DHT22;25099;51.946;4.838;2024-03-07T09:34:35;7.50;99.90
39371;DHT22;25099;51.946;4.838;2024-03-07T09:37:01;7.60;99.90
39371;DHT22;25099;51.946;4.838;2024-03-07T09:39:27;7.60;99.90
39371;DHT22;25099;51.946;4.838;2024-03-07T09:41:53;7.70;99.90
39371;DHT22;25099;51.946;4.838;2024-03-07T09:44:21;7.70;99.90
39371;DHT22;25099;51.946;4.838;2024-03-07T09:46:50;7.80;99.90
39371;DHT22;25099;51.946;4.838;2024-03-07T09:49:17;7.80;99.90
39371;DHT22;25099;51.946;4.838;2024-03-07T09:51:43;7.80;99.90
39371;DHT22;25099;51.946;4.838;2024-03-07T09:54:10;7.80;99.90
39371;DHT22;25099;51.946;4.838;2024-03-07T09:56:36;7.80;99.90
39371;DHT22;25099;51.946;4.838;2024-03-07T09:59:04;7.90;99.90
39371;DHT22;25099;51.946;4.838;2024-03-07T10:01:33;7.90;99.90
39371;DHT22;25099;51.946;4.838;2024-03-07T10:04:00;8.00;99.90
39371;DHT22;25099;51.946;4.838;2024-03-07T10:06:44;8.00;99.90
39371;DHT22;25099;51.946;4.838;2024-03-07T10:09:13;8.00;99.90
39371;DHT22;25099;51.946;4.838;2024-03-07T10:11:40;8.00;99.90
39371;DHT22;25099;51.946;4.838;2024-03-07T10:14:07;8.10;99.90
39371;DHT22;25099;51.946;4.838;2024-03-07T10:16:32;8.10;99.90
39371;DHT22;25099;51.946;4.838;2024-03-07T10:18:59;8.20;99.90
39371;DHT22;25099;51.946;4.838;2024-03-07T10:21:26;8.20;99.90
39371;DHT22;25099;51.946;4.838;2024-03-07T10:24:04;8.20;99.90
39371;DHT22;25099;51.946;4.838;2024-03-07T10:26:36;8.20;99.90
39371;DHT22;25099;51.946;4.838;2024-03-07T10:29:06;8.30;99.90
39371;DHT22;25099;51.946;4.838;2024-03-07T10:31:34;8.30;99.90
39371;DHT22;25099;51.946;4.838;2024-03-07T10:34:00;8.40;99.90
39371;DHT22;25099;51.946;4.838;2024-03-07T10:36:28;8.40;99.90
39371;DHT22;25099;51.946;4.838;2024-03-07T10:38:56;8.40;99.90
39371;DHT22;25099;51.946;4.838;2024-03-07T10:41:24;8.50;99.90
39371;DHT22;25099;51.946;4.838;2024-03-07T10:43:57;8.40;99.90
39371;DHT22;25099;51.946;4.838;2024-03-07T10:46:25;8.50;99.90
39371;DHT22;25099;51.946;4.838;2024-03-07T10:48:54;8.50;99.90
39371;DHT22;25099;51.946;4.838;2024-03-07T10:51:46;8.50;99.90
39371;DHT22;25099;51.946;4.838;2024-03-07T10:57:20;8.60;99.90
39371;DHT22;25099;51.946;4.838;2024-03-07T10:59:50;9.30;99.90
39371;DHT22;25099;51.946;4.838;2024-03-07T11:02:43;8.60;99.90
39371;DHT22;25099;51.946;4.838;2024-03-07T11:05:12;8.60;99.90
39371;DHT22;25099;51.946;4.838;2024-03-07T11:07:38;8.70;99.90
39371;DHT22;25099;51.946;4.838;2024-03-07T11:10:05;8.70;99.90
39371;DHT22;25099;51.946;4.838;2024-03-07T11:12:38;8.70;99.90
39371;DHT22;25099;51.946;4.838;2024-03-07T11:15:05;8.70;99.90
39371;DHT22;25099;51.946;4.838;2024-03-07T11:17:32;8.70;99.90
39371;DHT22;25099;51.946;4.838;2024-03-07T11:20:22;8.80;99.90
39371;DHT22;25099;51.946;4.838;2024-03-07T11:22:48;9.00;99.90
39371;DHT22;25099;51.946;4.838;2024-03-07T11:25:17;9.10;99.90
39371;DHT22;25099;51.946;4.838;2024-03-07T11:28:00;9.10;99.90
39371;DHT22;25099;51.946;4.838;2024-03-07T11:30:26;9.10;99.90
39371;DHT22;25099;51.946;4.838;2024-03-07T11:32:53;9.10;99.90
39371;DHT22;25099;51.946;4.838;2024-03-07T11:35:34;9.10;99.90
39371;DHT22;25099;51.946;4.838;2024-03-07T11:38:06;9.20;99.90
39371;DHT22;25099;51.946;4.838;2024-03-07T11:42:57;9.40;99.90
39371;DHT22;25099;51.946;4.838;2024-03-07T11:45:30;9.80;99.90
39371;DHT22;25099;51.946;4.838;2024-03-07T11:48:00;9.40;99.90
39371;DHT22;25099;51.946;4.838;2024-03-07T11:50:29;9.40;99.90
39371;DHT22;25099;51.946;4.838;2024-03-07T11:53:01;9.50;99.90
39371;DHT22;25099;51.946;4.838;2024-03-07T11:55:27;9.50;99.90
39371;DHT22;25099;51.946;4.838;2024-03-07T11:57:59;9.50;99.90
39371;DHT22;25099;51.946;4.838;2024-03-07T12:00:25;9.50;99.90
39371;DHT22;25099;51.946;4.838;2024-03-07T12:02:54;10.50;99.90
39371;DHT22;25099;51.946;4.838;2024-03-07T12:05:19;9.50;99.90
39371;DHT22;25099;51.946;4.838;2024-03-07T12:07:45;9.50;99.90
39371;DHT22;25099;51.946;4.838;2024-03-07T12:10:11;9.60;99.90
39371;DHT22;25099;51.946;4.838;2024-03-07T12:12:37;9.60;99.90
39371;DHT22;25099;51.946;4.838;2024-03-07T12:15:07;9.70;99.90
39371;DHT22;25099;51.946;4.838;2024-03-07T12:17:42;9.70;99.90
39371;DHT22;25099;51.946;4.838;2024-03-07T12:20:08;9.80;99.90
39371;DHT22;25099;51.946;4.838;2024-03-07T12:22:50;9.80;99.90
39371;DHT22;25099;51.946;4.838;2024-03-07T12:25:18;9.80;99.90
39371;DHT22;25099;51.946;4.838;2024-03-07T12:27:47;9.80;99.90
39371;DHT22;25099;51.946;4.838;2024-03-07T12:30:26;9.80;99.90
39371;DHT22;25099;51.946;4.838;2024-03-07T12:32:52;9.90;99.90
39371;DHT22;25099;51.946;4.838;2024-03-07T12:35:18;9.80;99.90
39371;DHT22;25099;51.946;4.838;2024-03-07T12:37:44;9.80;99.90
39371;DHT22;25099;51.946;4.838;2024-03-07T12:40:12;9.80;99.90
39371;DHT22;25099;51.946;4.838;2024-03-07T12:42:46;9.80;99.90
39371;DHT22;25099;51.946;4.838;2024-03-07T12:45:12;9.90;99.90
39371;DHT22;25099;51.946;4.838;2024-03-07T12:47:43;9.90;99.90
39371;DHT22;25099;51.946;4.838;2024-03-07T12:50:09;10.00;99.90
39371;DHT22;25099;51.946;4.838;2024-03-07T12:52:36;10.00;99.90
39371;DHT22;25099;51.946;4.838;2024-03-07T12:55:01;10.10;99.90
39371;DHT22;25099;51.946;4.838;2024-03-07T12:57:27;10.10;99.90
39371;DHT22;25099;51.946;4.838;2024-03-07T12:59:53;10.10;99.90
39371;DHT22;25099;51.946;4.838;2024-03-07T13:02:18;10.10;99.90
39371;DHT22;25099;51.946;4.838;2024-03-07T13:04:44;10.10;99.90
39371;DHT22;25099;51.946;4.838;2024-03-07T13:07:10;10.10;99.90
39371;DHT22;25099;51.946;4.838;2024-03-07T13:09:36;10.10;99.90
39371;DHT22;25099;51.946;4.838;2024-03-07T13:12:04;10.10;99.90
39371;DHT22;25099;51.946;4.838;2024-03-07T13:14:34;10.10;99.90
39371;DHT22;25099;51.946;4.838;2024-03-07T13:17:03;10.10;99.90
39371;DHT22;25099;51.946;4.838;2024-03-07T13:19:30;10.10;99.90
39371;DHT22;25099;51.946;4.838;2024-03-07T13:21:56;10.50;99.90
39371;DHT22;25099;51.946;4.838;2024-03-07T13:24:22;10.30;99.90
39371;DHT22;25099;51.946;4.838;2024-03-07T13:26:49;10.30;99.90
39371;DHT22;25099;51.946;4.838;2024-03-07T13:29:15;10.20;99.90
39371;DHT22;25099;51.946;4.838;2024-03-07T13:31:42;10.10;99.90
39371;DHT22;25099;51.946;4.838;2024-03-07T13:34:08;10.10;99.90
39371;DHT22;25099;51.946;4.838;2024-03-07T13:36:40;10.00;99.90
39371;DHT22;25099;51.946;4.838;2024-03-07T13:39:07;10.00;99.90
39371;DHT22;25099;51.946;4.838;2024-03-07T13:41:37;10.00;99.90
39371;DHT22;25099;51.946;4.838;2024-03-07T13:44:03;10.00;99.90
39371;DHT22;25099;51.946;4.838;2024-03-07T13:46:29;10.00;99.90
39371;DHT22;25099;51.946;4.838;2024-03-07T13:48:56;10.10;99.90
39371;DHT22;25099;51.946;4.838;2024-03-07T13:51:32;10.20;99.90
39371;DHT22;25099;51.946;4.838;2024-03-07T13:54:00;10.30;99.90
39371;DHT22;25099;51.946;4.838;2024-03-07T13:56:50;10.40;99.90
39371;DHT22;25099;51.946;4.838;2024-03-07T13:59:43;10.40;99.90
39371;DHT22;25099;51.946;4.838;2024-03-07T14:05:34;10.40;99.90
39371;DHT22;25099;51.946;4.838;2024-03-07T14:08:33;10.40;99.90
39371;DHT22;25099;51.946;4.838;2024-03-07T14:11:41;10.40;99.90
39371;DHT22;25099;51.946;4.838;2024-03-07T14:28:43;10.00;99.90
39371;DHT22;25099;51.946;4.838;2024-03-07T14:31:13;10.20;99.90
39371;DHT22;25099;51.946;4.838;2024-03-07T14:34:09;10.00;99.90
39371;DHT22;25099;51.946;4.838;2024-03-07T14:36:52;10.00;99.90
39371;DHT22;25099;51.946;4.838;2024-03-07T14:39:19;10.00;99.90
39371;DHT22;25099;51.946;4.838;2024-03-07T14:42:05;9.90;99.90
39371;DHT22;25099;51.946;4.838;2024-03-07T14:44:42;9.90;99.90
39371;DHT22;25099;51.946;4.838;2024-03-07T14:47:09;9.90;99.90
39371;DHT22;25099;51.946;4.838;2024-03-07T14:49:37;9.90;99.90
39371;DHT22;25099;51.946;4.838;2024-03-07T14:52:03;10.10;99.90
39371;DHT22;25099;51.946;4.838;2024-03-07T14:54:35;10.00;99.90
39371;DHT22;25099;51.946;4.838;2024-03-07T14:57:00;10.00;99.90
39371;DHT22;25099;51.946;4.838;2024-03-07T14:59:26;10.00;99.90
39371;DHT22;25099;51.946;4.838;2024-03-07T15:01:52;9.90;99.90
39371;DHT22;25099;51.946;4.838;2024-03-07T15:04:18;9.90;99.90
39371;DHT22;25099;51.946;4.838;2024-03-07T15:06:44;10.00;99.90
39371;DHT22;25099;51.946;4.838;2024-03-07T15:09:09;9.70;99.90
39371;DHT22;25099;51.946;4.838;2024-03-07T15:11:38;9.70;99.90
39371;DHT22;25099;51.946;4.838;2024-03-07T15:14:06;9.70;99.90
39371;DHT22;25099;51.946;4.838;2024-03-07T15:16:34;9.60;99.90
39371;DHT22;25099;51.946;4.838;2024-03-07T15:19:06;9.70;99.90
39371;DHT22;25099;51.946;4.838;2024-03-07T15:21:35;9.60;99.90
39371;DHT22;25099;51.946;4.838;2024-03-07T15:24:02;9.60;99.90
39371;DHT22;25099;51.946;4.838;2024-03-07T15:26:29;9.60;99.90
39371;DHT22;25099;51.946;4.838;2024-03-07T15:28:57;9.60;99.90
39371;DHT22;25099;51.946;4.838;2024-03-07T15:31:23;9.60;99.90
39371;DHT22;25099;51.946;4.838;2024-03-07T15:33:50;9.60;99.90
39371;DHT22;25099;51.946;4.838;2024-03-07T15:36:17;9.60;99.90
39371;DHT22;25099;51.946;4.838;2024-03-07T15:38:43;9.60;99.90
39371;DHT22;25099;51.946;4.838;2024-03-07T15:41:09;9.60;99.90
39371;DHT22;25099;51.946;4.838;2024-03-07T15:43:38;9.50;99.90
39371;DHT22;25099;51.946;4.838;2024-03-07T15:46:04;9.50;99.90
39371;DHT22;25099;51.946;4.838;2024-03-07T15:48:30;9.50;99.90
39371;DHT22;25099;51.946;4.838;2024-03-07T15:50:56;9.50;99.90
39371;DHT22;25099;51.946;4.838;2024-03-07T15:53:23;9.60;99.90
39371;DHT22;25099;51.946;4.838;2024-03-07T15:55:49;9.50;99.90
39371;DHT22;25099;51.946;4.838;2024-03-07T15:58:14;9.50;99.90
39371;DHT22;25099;51.946;4.838;2024-03-07T16:00:43;9.50;99.90
39371;DHT22;25099;51.946;4.838;2024-03-07T16:03:11;9.50;99.90
39371;DHT22;25099;51.946;4.838;2024-03-07T16:05:39;9.40;99.90
39371;DHT22;25099;51.946;4.838;2024-03-07T16:08:06;9.50;99.90
39371;DHT22;25099;51.946;4.838;2024-03-07T16:10:34;9.50;99.90
39371;DHT22;25099;51.946;4.838;2024-03-07T16:13:05;9.50;99.90